createdAt,value
2018-07-14T00:00:04.489Z,25.20
2018-07-14T00:01:04.447Z,27.40
2018-07-14T00:02:04.437Z,31.50
2018-07-14T00:03:04.429Z,25.60
2018-07-14T00:04:04.413Z,29.40
2018-07-14T00:05:04.402Z,26.20
2018-07-14T00:06:04.410Z,28.90
2018-07-14T00:07:04.379Z,26.70
2018-07-14T00:08:04.375Z,28.90
2018-07-14T00:09:04.362Z,28.00
2018-07-14T00:10:04.436Z,31.00
2018-07-14T00:11:04.369Z,31.00
2018-07-14T00:12:04.325Z,29.20
2018-07-14T00:13:04.318Z,27.80
2018-07-14T00:14:04.311Z,29.10
2018-07-14T00:15:04.301Z,27.50
2018-07-14T00:16:04.281Z,31.00
2018-07-14T00:17:04.317Z,29.70
2018-07-14T00:18:04.263Z,31.50
2018-07-14T00:19:04.255Z,31.20
2018-07-14T00:20:04.247Z,31.10
2018-07-14T00:21:04.235Z,35.50
2018-07-14T00:22:04.247Z,32.70
2018-07-14T00:23:04.243Z,33.50
2018-07-14T00:24:04.207Z,34.30
2018-07-14T00:25:04.188Z,31.20
2018-07-14T00:26:04.179Z,31.70
2018-07-14T00:27:04.173Z,26.70
2018-07-14T00:28:04.178Z,37.70
2018-07-14T00:29:04.147Z,30.30
2018-07-14T00:30:04.134Z,33.00
2018-07-14T00:31:04.121Z,29.70
2018-07-14T00:32:04.117Z,26.80
2018-07-14T00:33:04.130Z,37.20
2018-07-14T00:34:04.093Z,27.20
2018-07-14T00:35:04.087Z,29.80
2018-07-14T00:36:04.069Z,27.30
2018-07-14T00:37:04.063Z,24.30
2018-07-14T00:38:04.047Z,26.90
2018-07-14T00:39:04.054Z,29.40
2018-07-14T00:40:04.031Z,30.00
2018-07-14T00:41:04.021Z,28.20
2018-07-14T00:42:04.007Z,29.10
2018-07-14T00:43:03.998Z,27.70
2018-07-14T00:44:03.999Z,27.90
2018-07-14T00:45:03.972Z,25.30
2018-07-14T00:46:03.964Z,29.50
2018-07-14T00:47:03.956Z,26.50
2018-07-14T00:48:03.938Z,31.40
2018-07-14T00:49:03.958Z,25.80
2018-07-14T00:50:03.918Z,31.60
2018-07-14T00:51:03.907Z,26.30
2018-07-14T00:52:03.903Z,25.80
2018-07-14T00:53:03.890Z,35.60
2018-07-14T00:54:03.887Z,24.80
2018-07-14T00:55:03.883Z,27.20
2018-07-14T00:56:03.859Z,26.00
2018-07-14T00:57:03.846Z,36.50
2018-07-14T00:58:03.835Z,32.40
2018-07-14T00:59:03.827Z,36.00
2018-07-14T01:00:03.846Z,35.50
2018-07-14T01:01:03.812Z,36.60
2018-07-14T01:02:03.795Z,36.70
2018-07-14T01:03:03.789Z,34.10
2018-07-14T01:04:03.766Z,29.50
2018-07-14T01:05:03.758Z,39.90
2018-07-14T01:06:03.766Z,25.00
2018-07-14T01:07:03.735Z,32.60
2018-07-14T01:08:03.729Z,41.90
2018-07-14T01:09:03.717Z,29.10
2018-07-14T01:10:03.710Z,39.90
2018-07-14T01:11:03.717Z,28.80
2018-07-14T01:12:03.686Z,29.20
2018-07-14T01:13:03.672Z,37.50
2018-07-14T01:14:03.663Z,39.10
2018-07-14T01:15:03.656Z,39.60
2018-07-14T01:16:03.663Z,31.30
2018-07-14T01:17:03.630Z,39.30
2018-07-14T01:18:03.622Z,30.10
2018-07-14T01:19:03.613Z,34.00
2018-07-14T01:20:03.596Z,39.10
2018-07-14T01:21:03.587Z,35.10
2018-07-14T01:22:03.597Z,39.50
2018-07-14T01:23:03.562Z,35.10
2018-07-14T01:24:03.560Z,41.40
2018-07-14T01:25:03.546Z,34.30
2018-07-14T01:26:03.534Z,44.80
2018-07-14T01:27:03.549Z,42.60
2018-07-14T01:28:03.508Z,40.80
2018-07-14T01:29:03.500Z,51.70
2018-07-14T01:30:03.491Z,43.50
2018-07-14T01:31:03.477Z,42.80
2018-07-14T01:32:03.473Z,34.90
2018-07-14T01:33:03.477Z,46.10
2018-07-14T01:34:03.446Z,46.00
2018-07-14T01:35:03.432Z,36.40
2018-07-14T01:36:03.428Z,33.30
2018-07-14T01:37:03.415Z,38.30
2018-07-14T01:38:03.430Z,30.10
2018-07-14T01:39:03.397Z,40.70
2018-07-14T01:40:03.378Z,33.80
2018-07-14T01:41:03.370Z,38.30
2018-07-14T01:42:03.359Z,29.90
2018-07-14T01:43:03.380Z,37.40
2018-07-14T01:44:03.342Z,39.70
2018-07-14T01:45:03.329Z,39.90
2018-07-14T01:46:03.318Z,42.70
2018-07-14T01:47:03.310Z,40.20
2018-07-14T01:48:03.291Z,32.60
2018-07-14T01:49:03.306Z,45.00
2018-07-14T01:50:03.274Z,39.40
2018-07-14T01:51:03.267Z,31.30
2018-07-14T01:52:03.247Z,41.20
2018-07-14T01:53:03.239Z,38.30
2018-07-14T01:54:03.254Z,50.90
2018-07-14T01:55:03.215Z,52.10
2018-07-14T01:56:03.211Z,47.10
2018-07-14T01:57:03.208Z,49.20
2018-07-14T01:58:03.203Z,55.30
2018-07-14T01:59:03.190Z,44.90
2018-07-14T02:00:03.180Z,57.20
2018-07-14T02:01:03.153Z,46.00
2018-07-14T02:02:03.141Z,54.70
2018-07-14T02:03:03.127Z,64.00
2018-07-14T02:04:03.123Z,38.80
2018-07-14T02:05:03.138Z,44.50
2018-07-14T02:06:03.098Z,52.20
2018-07-14T02:07:03.087Z,41.90
2018-07-14T02:08:03.094Z,43.60
2018-07-14T02:09:03.067Z,54.60
2018-07-14T02:10:03.057Z,54.30
2018-07-14T02:11:03.075Z,47.00
2018-07-14T02:12:03.034Z,64.40
2018-07-14T02:13:03.022Z,49.50
2018-07-14T02:14:03.017Z,45.30
2018-07-14T02:15:02.997Z,46.10
2018-07-14T02:16:02.998Z,61.70
2018-07-14T02:17:02.999Z,61.90
2018-07-14T02:18:02.969Z,53.30
2018-07-14T02:19:02.963Z,65.70
2018-07-14T02:20:02.948Z,58.30
2018-07-14T02:21:02.949Z,67.20
2018-07-14T02:22:02.962Z,72.90
2018-07-14T02:23:02.917Z,63.90
2018-07-14T02:24:02.900Z,74.70
2018-07-14T02:25:02.891Z,83.10
2018-07-14T02:26:02.880Z,94.60
2018-07-14T02:27:02.868Z,63.70
2018-07-14T02:28:02.884Z,94.50
2018-07-14T02:29:02.871Z,93.90
2018-07-14T02:30:02.848Z,83.30
2018-07-14T02:31:02.835Z,78.70
2018-07-14T02:32:02.812Z,99.10
2018-07-14T02:33:02.832Z,84.40
2018-07-14T02:34:02.793Z,105.70
2018-07-14T02:35:02.785Z,98.00
2018-07-14T02:36:02.776Z,96.10
2018-07-14T02:37:02.762Z,104.80
2018-07-14T02:38:02.750Z,92.90
2018-07-14T02:39:02.769Z,110.50
2018-07-14T02:40:02.736Z,109.40
2018-07-14T02:41:02.740Z,94.10
2018-07-14T02:42:02.716Z,93.60
2018-07-14T02:43:02.703Z,100.90
2018-07-14T02:44:02.682Z,100.70
2018-07-14T02:45:02.692Z,100.90
2018-07-14T02:46:02.665Z,103.80
2018-07-14T02:47:02.650Z,125.50
2018-07-14T02:48:02.646Z,96.30
2018-07-14T02:49:02.634Z,98.80
2018-07-14T02:50:02.641Z,94.30
2018-07-14T02:51:02.612Z,107.70
2018-07-14T02:52:02.600Z,105.70
2018-07-14T02:53:02.586Z,105.20
2018-07-14T02:54:02.592Z,96.00
2018-07-14T02:55:02.618Z,98.90
2018-07-14T02:56:02.552Z,138.40
2018-07-14T02:57:02.542Z,108.50
2018-07-14T02:58:02.533Z,121.50
2018-07-14T02:59:02.518Z,112.60
2018-07-14T03:00:02.527Z,111.60
2018-07-14T03:01:02.527Z,145.50
2018-07-14T03:02:02.494Z,97.70
2018-07-14T03:03:02.481Z,121.50
2018-07-14T03:04:02.469Z,126.50
2018-07-14T03:05:02.455Z,106.20
2018-07-14T03:06:02.446Z,113.40
2018-07-14T03:07:02.461Z,99.90
2018-07-14T03:08:02.428Z,94.00
2018-07-14T03:09:02.423Z,95.20
2018-07-14T03:10:02.401Z,116.90
2018-07-14T03:11:02.404Z,122.70
2018-07-14T03:12:02.385Z,92.20
2018-07-14T03:13:02.390Z,105.60
2018-07-14T03:14:02.377Z,106.30
2018-07-14T03:15:02.368Z,95.60
2018-07-14T03:16:02.385Z,90.70
2018-07-14T03:17:02.379Z,135.20
2018-07-14T03:18:02.340Z,113.50
2018-07-14T03:19:02.317Z,129.10
2018-07-14T03:20:02.303Z,111.00
2018-07-14T03:21:02.283Z,113.40
2018-07-14T03:22:02.279Z,146.50
2018-07-14T03:23:02.291Z,110.20
2018-07-14T03:24:02.312Z,126.60
2018-07-14T03:25:02.244Z,121.30
2018-07-14T03:26:02.240Z,99.40
2018-07-14T03:27:02.227Z,104.70
2018-07-14T03:28:02.247Z,115.50
2018-07-14T03:29:02.215Z,125.90
2018-07-14T03:30:02.222Z,105.50
2018-07-14T03:31:02.172Z,105.90
2018-07-14T03:32:02.175Z,110.20
2018-07-14T03:33:02.163Z,100.10
2018-07-14T03:34:02.153Z,122.20
2018-07-14T03:35:02.177Z,103.10
2018-07-14T03:36:02.129Z,107.40
2018-07-14T03:37:02.107Z,115.40
2018-07-14T03:38:02.133Z,117.10
2018-07-14T03:39:02.085Z,125.40
2018-07-14T03:40:02.080Z,108.90
2018-07-14T03:41:02.096Z,116.70
2018-07-14T03:42:02.083Z,165.20
2018-07-14T03:43:02.040Z,111.30
2018-07-14T03:44:02.051Z,102.60
2018-07-14T03:45:02.023Z,167.50
2018-07-14T03:46:02.016Z,148.10
2018-07-14T03:47:02.024Z,113.30
2018-07-14T03:48:02.015Z,147.20
2018-07-14T03:49:01.991Z,116.60
2018-07-14T03:50:01.965Z,180.00
2018-07-14T03:51:01.953Z,106.60
2018-07-14T03:52:01.988Z,116.40
2018-07-14T03:53:01.936Z,136.40
2018-07-14T03:54:01.925Z,133.40
2018-07-14T03:55:01.916Z,108.00
2018-07-14T03:56:01.901Z,102.20
2018-07-14T03:57:02.011Z,165.80
2018-07-14T03:58:01.918Z,130.40
2018-07-14T03:59:01.888Z,117.60
2018-07-14T04:00:01.860Z,136.40
2018-07-14T04:01:01.862Z,93.10
2018-07-14T04:02:01.837Z,96.30
2018-07-14T04:03:01.822Z,137.80
2018-07-14T04:04:01.852Z,100.10
2018-07-14T04:05:01.855Z,99.00
2018-07-14T04:06:01.794Z,99.20
2018-07-14T04:07:01.795Z,103.90
2018-07-14T04:08:01.768Z,116.60
2018-07-14T04:09:01.772Z,128.90
2018-07-14T04:10:01.772Z,141.60
2018-07-14T04:11:01.756Z,88.00
2018-07-14T04:12:01.758Z,76.70
2018-07-14T04:13:01.719Z,84.00
2018-07-14T04:14:01.774Z,74.70
2018-07-14T04:15:01.730Z,96.80
2018-07-14T04:16:01.688Z,99.90
2018-07-14T04:17:01.676Z,90.80
2018-07-14T04:18:01.664Z,88.20
2018-07-14T04:19:01.655Z,88.20
2018-07-14T04:20:01.663Z,106.10
2018-07-14T04:21:01.630Z,93.70
2018-07-14T04:22:01.619Z,79.70
2018-07-14T04:23:01.608Z,79.90
2018-07-14T04:24:01.617Z,87.30
2018-07-14T04:25:01.639Z,117.40
2018-07-14T04:26:01.617Z,97.40
2018-07-14T04:27:01.568Z,114.20
2018-07-14T04:28:01.553Z,122.80
2018-07-14T04:29:01.543Z,162.90
2018-07-14T04:30:01.563Z,109.30
2018-07-14T04:31:01.526Z,109.10
2018-07-14T04:32:01.548Z,112.40
2018-07-14T04:33:01.498Z,129.30
2018-07-14T04:34:01.500Z,114.30
2018-07-14T04:35:01.476Z,115.00
2018-07-14T04:36:01.509Z,134.10
2018-07-14T04:37:01.458Z,101.50
2018-07-14T04:38:01.451Z,103.70
2018-07-14T04:39:01.438Z,102.40
2018-07-14T04:40:01.420Z,126.10
2018-07-14T04:41:01.411Z,105.90
2018-07-14T04:42:01.445Z,83.80
2018-07-14T04:43:01.389Z,105.10
2018-07-14T04:44:01.395Z,105.80
2018-07-14T04:45:01.372Z,120.70
2018-07-14T04:46:01.361Z,105.00
2018-07-14T04:47:01.401Z,112.70
2018-07-14T04:48:01.341Z,90.40
2018-07-14T04:49:01.329Z,102.80
2018-07-14T04:50:01.316Z,115.80
2018-07-14T04:51:01.309Z,135.90
2018-07-14T04:52:01.319Z,120.40
2018-07-14T04:53:01.324Z,104.90
2018-07-14T04:54:01.270Z,102.40
2018-07-14T04:55:01.257Z,109.10
2018-07-14T04:56:01.347Z,127.30
2018-07-14T04:57:01.257Z,83.90
2018-07-14T04:58:01.267Z,95.70
2018-07-14T04:59:01.275Z,109.50
2018-07-14T05:00:01.213Z,100.30
2018-07-14T05:01:01.211Z,81.20
2018-07-14T05:02:01.214Z,98.50
2018-07-14T05:03:01.226Z,115.50
2018-07-14T05:04:01.249Z,103.20
2018-07-14T05:05:01.153Z,101.40
2018-07-14T05:06:01.142Z,85.30
2018-07-14T05:07:01.135Z,94.70
2018-07-14T05:08:01.175Z,91.60
2018-07-14T05:09:01.111Z,90.60
2018-07-14T05:10:01.126Z,83.10
2018-07-14T05:11:01.094Z,79.90
2018-07-14T05:12:01.097Z,108.40
2018-07-14T05:13:01.064Z,72.50
2018-07-14T05:14:01.054Z,77.60
2018-07-14T05:15:01.077Z,80.10
2018-07-14T05:16:01.055Z,69.60
2018-07-14T05:17:01.029Z,103.90
2018-07-14T05:18:01.012Z,67.30
2018-07-14T05:19:01.004Z,124.10
2018-07-14T05:20:01.001Z,80.10
2018-07-14T05:21:01.020Z,68.20
2018-07-14T05:22:00.979Z,77.30
2018-07-14T05:23:00.960Z,67.40
2018-07-14T05:24:00.993Z,71.70
2018-07-14T05:25:00.933Z,69.40
2018-07-14T05:26:00.937Z,83.00
2018-07-14T05:27:00.966Z,68.50
2018-07-14T05:28:00.908Z,77.50
2018-07-14T05:29:00.906Z,72.20
2018-07-14T05:30:00.893Z,68.70
2018-07-14T05:31:00.874Z,57.20
2018-07-14T05:32:00.911Z,58.30
2018-07-14T05:33:00.849Z,69.80
2018-07-14T05:34:00.851Z,57.30
2018-07-14T05:35:00.830Z,65.50
2018-07-14T05:36:00.816Z,57.50
2018-07-14T05:37:00.804Z,56.10
2018-07-14T05:38:00.824Z,63.00
2018-07-14T05:39:00.784Z,71.60
2018-07-14T05:40:00.785Z,57.80
2018-07-14T05:41:00.801Z,54.30
2018-07-14T05:42:00.756Z,56.10
2018-07-14T05:43:00.743Z,74.20
2018-07-14T05:44:00.827Z,51.60
2018-07-14T05:45:00.739Z,55.00
2018-07-14T05:46:00.747Z,53.10
2018-07-14T05:47:00.713Z,53.20
2018-07-14T05:48:00.741Z,55.20
2018-07-14T05:49:00.696Z,47.00
2018-07-14T05:50:00.690Z,47.90
2018-07-14T05:51:00.655Z,45.10
2018-07-14T05:52:00.659Z,46.70
2018-07-14T05:53:00.641Z,57.90
2018-07-14T05:54:00.625Z,44.20
2018-07-14T05:55:00.667Z,52.60
2018-07-14T05:56:00.599Z,46.20
2018-07-14T05:57:00.587Z,44.10
2018-07-14T05:58:00.576Z,37.00
2018-07-14T05:59:00.589Z,43.00
2018-07-14T06:00:00.564Z,40.30
2018-07-14T06:01:00.589Z,40.60
2018-07-14T06:02:00.540Z,37.00
2018-07-14T06:03:00.530Z,42.10
2018-07-14T06:04:00.527Z,39.50
2018-07-14T06:05:00.500Z,38.70
2018-07-14T06:06:00.498Z,38.70
2018-07-14T06:07:00.506Z,32.90
2018-07-14T06:08:00.473Z,38.90
2018-07-14T06:09:00.457Z,32.50
2018-07-14T06:10:00.449Z,37.90
2018-07-14T06:11:00.453Z,34.00
2018-07-14T06:12:00.449Z,34.40
2018-07-14T06:13:00.422Z,31.30
2018-07-14T06:14:00.411Z,35.00
2018-07-14T06:15:00.396Z,33.60
2018-07-14T06:16:00.387Z,34.70
2018-07-14T06:17:00.400Z,36.90
2018-07-14T06:18:00.367Z,32.80
2018-07-14T06:19:00.351Z,34.50
2018-07-14T06:20:00.351Z,34.50
2018-07-14T06:21:00.334Z,34.40
2018-07-14T06:22:00.322Z,35.00
2018-07-14T06:23:00.337Z,33.40
2018-07-14T06:24:00.305Z,32.50
2018-07-14T06:25:00.291Z,37.40
2018-07-14T06:26:00.290Z,32.00
2018-07-14T06:27:00.278Z,34.80
2018-07-14T06:28:00.252Z,33.50
2018-07-14T06:29:00.264Z,34.60
2018-07-14T06:30:00.233Z,32.40
2018-07-14T06:31:00.241Z,36.70
2018-07-14T06:32:00.276Z,35.90
2018-07-14T06:33:00.207Z,33.70
2018-07-14T06:34:00.241Z,33.70
2018-07-14T06:35:00.186Z,33.70
2018-07-14T06:36:00.167Z,34.90
2018-07-14T06:37:00.157Z,35.60
2018-07-14T06:38:00.155Z,30.70
2018-07-14T06:39:00.140Z,34.80
2018-07-14T06:40:00.156Z,36.20
2018-07-14T06:41:00.127Z,37.90
2018-07-14T06:42:00.103Z,35.10
2018-07-14T06:43:00.092Z,35.20
2018-07-14T06:44:00.085Z,37.70
2018-07-14T06:45:00.080Z,35.80
2018-07-14T06:46:00.089Z,33.90
2018-07-14T06:47:00.053Z,34.60
2018-07-14T06:48:00.042Z,35.10
2018-07-14T06:49:00.032Z,37.70
2018-07-14T06:50:00.030Z,36.30
2018-07-14T06:51:00.007Z,37.00
2018-07-14T06:52:00.030Z,37.60
2018-07-14T06:52:59.989Z,33.90
2018-07-14T06:53:59.974Z,35.60
2018-07-14T06:54:59.965Z,36.80
2018-07-14T06:55:59.953Z,36.30
2018-07-14T06:56:59.966Z,34.20
2018-07-14T06:57:59.940Z,34.30
2018-07-14T06:58:59.921Z,33.90
2018-07-14T06:59:59.929Z,35.30
2018-07-14T07:00:59.896Z,32.20
2018-07-14T07:01:59.938Z,31.10
2018-07-14T07:02:59.880Z,31.70
2018-07-14T07:03:59.904Z,32.60
2018-07-14T07:04:59.861Z,32.50
2018-07-14T07:05:59.850Z,36.40
2018-07-14T07:06:59.834Z,32.10
2018-07-14T07:07:59.853Z,31.20
2018-07-14T07:08:59.812Z,31.70
2018-07-14T07:09:59.813Z,31.70
2018-07-14T07:10:59.792Z,30.70
2018-07-14T07:11:59.780Z,32.90
2018-07-14T07:12:59.813Z,32.00
2018-07-14T07:13:59.782Z,34.90
2018-07-14T07:14:59.743Z,30.90
2018-07-14T07:15:59.735Z,34.10
2018-07-14T07:16:59.727Z,32.20
2018-07-14T07:17:59.722Z,34.30
2018-07-14T07:18:59.738Z,32.40
2018-07-14T07:19:59.718Z,31.40
2018-07-14T07:20:59.701Z,32.00
2018-07-14T07:21:59.691Z,32.00
2018-07-14T07:22:59.690Z,31.70
2018-07-14T07:23:59.651Z,30.60
2018-07-14T07:24:59.669Z,31.20
2018-07-14T07:25:59.624Z,31.60
2018-07-14T07:26:59.626Z,31.30
2018-07-14T07:27:59.607Z,29.80
2018-07-14T07:28:59.598Z,28.40
2018-07-14T07:29:59.587Z,31.70
2018-07-14T07:30:59.594Z,29.80
2018-07-14T07:31:59.603Z,32.10
2018-07-14T07:32:59.549Z,32.30
2018-07-14T07:33:59.594Z,29.20
2018-07-14T07:34:59.546Z,26.60
2018-07-14T07:35:59.553Z,27.00
2018-07-14T07:36:59.518Z,26.50
2018-07-14T07:37:59.538Z,26.60
2018-07-14T07:38:59.488Z,27.30
2018-07-14T07:39:59.475Z,26.90
2018-07-14T07:40:59.476Z,25.50
2018-07-14T07:41:59.486Z,25.60
2018-07-14T07:42:59.448Z,26.40
2018-07-14T07:43:59.433Z,26.50
2018-07-14T07:44:59.421Z,27.00
2018-07-14T07:45:59.426Z,26.50
2018-07-14T07:46:59.400Z,28.10
2018-07-14T07:47:59.418Z,28.10
2018-07-14T07:48:59.382Z,27.30
2018-07-14T07:49:59.397Z,26.70
2018-07-14T07:50:59.360Z,27.00
2018-07-14T07:51:59.346Z,27.00
2018-07-14T07:52:59.364Z,28.10
2018-07-14T07:53:59.322Z,28.10
2018-07-14T07:54:59.321Z,29.80
2018-07-14T07:55:59.312Z,27.10
2018-07-14T07:56:59.304Z,28.00
2018-07-14T07:57:59.280Z,28.30
2018-07-14T07:58:59.311Z,28.40
2018-07-14T07:59:59.267Z,28.00
2018-07-14T08:00:59.277Z,27.50
2018-07-14T08:01:59.245Z,27.50
2018-07-14T08:02:59.233Z,27.90
2018-07-14T08:03:59.220Z,26.70
2018-07-14T08:04:59.262Z,25.80
2018-07-14T08:05:59.208Z,26.90
2018-07-14T08:06:59.210Z,25.40
2018-07-14T08:07:59.231Z,26.00
2018-07-14T08:08:59.180Z,24.90
2018-07-14T08:09:59.157Z,24.30
2018-07-14T08:10:59.162Z,26.00
2018-07-14T08:11:59.129Z,25.60
2018-07-14T08:12:59.132Z,26.00
2018-07-14T08:13:59.113Z,27.30
2018-07-14T08:14:59.102Z,25.70
2018-07-14T08:15:59.155Z,24.60
2018-07-14T08:16:59.073Z,24.00
2018-07-14T08:17:59.063Z,24.90
2018-07-14T08:18:59.062Z,22.80
2018-07-14T08:19:59.049Z,23.60
2018-07-14T08:20:59.040Z,21.60
2018-07-14T08:21:59.055Z,21.70
2018-07-14T08:22:59.074Z,20.90
2018-07-14T08:23:59.034Z,22.90
2018-07-14T08:24:58.988Z,22.90
2018-07-14T08:25:58.989Z,22.90
2018-07-14T08:26:58.970Z,21.30
2018-07-14T08:27:58.983Z,22.70
2018-07-14T08:28:58.953Z,20.50
2018-07-14T08:29:58.938Z,20.90
2018-07-14T08:30:58.927Z,21.20
2018-07-14T08:31:58.936Z,20.80
2018-07-14T08:32:58.937Z,21.20
2018-07-14T08:33:58.910Z,19.20
2018-07-14T08:34:58.915Z,20.20
2018-07-14T08:35:58.875Z,18.60
2018-07-14T08:36:58.872Z,17.60
2018-07-14T08:37:58.900Z,18.90
2018-07-14T08:38:58.894Z,18.70
2018-07-14T08:39:58.837Z,17.90
2018-07-14T08:40:58.828Z,17.90
2018-07-14T08:41:58.817Z,18.50
2018-07-14T08:42:58.824Z,17.60
2018-07-14T08:43:58.794Z,16.60
2018-07-14T08:44:58.797Z,15.50
2018-07-14T08:45:58.776Z,16.90
2018-07-14T08:46:58.775Z,15.80
2018-07-14T08:47:58.756Z,15.50
2018-07-14T08:48:58.739Z,16.40
2018-07-14T08:49:58.753Z,15.70
2018-07-14T08:50:58.720Z,16.00
2018-07-14T08:51:58.712Z,15.60
2018-07-14T08:52:58.704Z,15.50
2018-07-14T08:53:58.704Z,15.60
2018-07-14T08:54:58.706Z,15.20
2018-07-14T08:55:58.726Z,14.60
2018-07-14T08:56:58.693Z,15.50
2018-07-14T08:57:58.711Z,16.00
2018-07-14T08:58:58.644Z,16.00
2018-07-14T08:59:58.632Z,15.10
2018-07-14T09:00:58.623Z,15.40
2018-07-14T09:01:58.638Z,14.60
2018-07-14T09:02:58.601Z,15.20
2018-07-14T09:03:58.591Z,14.20
2018-07-14T09:04:58.588Z,15.10
2018-07-14T09:05:58.576Z,15.80
2018-07-14T09:06:58.567Z,14.40
2018-07-14T09:07:58.581Z,15.90
2018-07-14T09:08:58.536Z,14.80
2018-07-14T09:09:58.526Z,15.40
2018-07-14T09:10:58.518Z,16.30
2018-07-14T09:11:58.512Z,15.00
2018-07-14T09:12:58.530Z,15.80
2018-07-14T09:13:58.509Z,15.60
2018-07-14T09:14:58.481Z,15.30
2018-07-14T09:15:58.465Z,17.20
2018-07-14T09:16:58.459Z,16.20
2018-07-14T09:17:58.469Z,15.00
2018-07-14T09:18:58.481Z,16.10
2018-07-14T09:19:58.442Z,16.20
2018-07-14T09:20:58.420Z,14.60
2018-07-14T09:21:58.453Z,15.00
2018-07-14T09:22:58.397Z,15.50
2018-07-14T09:23:58.390Z,15.10
2018-07-14T09:24:58.404Z,14.90
2018-07-14T09:25:58.384Z,14.70
2018-07-14T09:26:58.371Z,14.50
2018-07-14T09:27:58.346Z,14.80
2018-07-14T09:28:58.338Z,15.00
2018-07-14T09:29:58.355Z,15.90
2018-07-14T09:30:58.327Z,14.70
2018-07-14T09:31:58.330Z,15.90
2018-07-14T09:32:58.308Z,15.20
2018-07-14T09:33:58.341Z,15.60
2018-07-14T09:34:58.278Z,15.60
2018-07-14T09:35:58.304Z,14.30
2018-07-14T09:36:58.263Z,14.30
2018-07-14T09:37:58.338Z,15.40
2018-07-14T09:38:58.244Z,14.70
2018-07-14T09:39:58.316Z,15.90
2018-07-14T09:40:58.243Z,15.70
2018-07-14T09:41:58.264Z,15.80
2018-07-14T09:42:58.202Z,15.50
2018-07-14T09:43:58.226Z,14.50
2018-07-14T09:44:58.192Z,14.90
2018-07-14T09:45:58.179Z,15.50
2018-07-14T09:46:58.221Z,12.90
2018-07-14T09:47:58.160Z,12.50
2018-07-14T09:48:58.142Z,12.80
2018-07-14T09:49:58.132Z,14.00
2018-07-14T09:50:58.155Z,14.00
2018-07-14T09:51:58.113Z,13.30
2018-07-14T09:52:58.125Z,14.30
2018-07-14T09:53:58.090Z,13.80
2018-07-14T09:54:58.081Z,14.90
2018-07-14T09:55:58.073Z,14.50
2018-07-14T09:56:58.067Z,14.70
2018-07-14T09:57:58.051Z,14.30
2018-07-14T09:58:58.080Z,14.20
2018-07-14T09:59:58.025Z,14.00
2018-07-14T10:00:58.028Z,13.90
2018-07-14T10:01:58.016Z,15.60
2018-07-14T10:02:58.004Z,14.20
2018-07-14T10:03:57.992Z,15.40
2018-07-14T10:04:58.012Z,15.20
2018-07-14T10:05:57.972Z,15.60
2018-07-14T10:06:57.952Z,15.20
2018-07-14T10:07:57.948Z,15.50
2018-07-14T10:08:57.936Z,15.60
2018-07-14T10:09:58.007Z,16.40
2018-07-14T10:10:57.917Z,17.40
2018-07-14T10:11:57.899Z,16.50
2018-07-14T10:12:57.892Z,16.50
2018-07-14T10:13:57.881Z,16.80
2018-07-14T10:14:57.908Z,17.50
2018-07-14T10:15:57.898Z,16.30
2018-07-14T10:16:57.852Z,15.50
2018-07-14T10:17:57.842Z,14.80
2018-07-14T10:18:57.833Z,17.00
2018-07-14T10:19:57.819Z,16.40
2018-07-14T10:20:57.825Z,16.50
2018-07-14T10:21:57.837Z,14.60
2018-07-14T10:22:57.794Z,14.70
2018-07-14T10:23:57.808Z,15.20
2018-07-14T10:24:57.792Z,15.10
2018-07-14T10:25:57.848Z,16.80
2018-07-14T10:26:57.769Z,15.70
2018-07-14T10:27:57.745Z,15.40
2018-07-14T10:28:57.751Z,14.70
2018-07-14T10:29:57.714Z,15.30
2018-07-14T10:30:57.705Z,14.20
2018-07-14T10:31:57.689Z,14.70
2018-07-14T10:32:57.718Z,15.50
2018-07-14T10:33:57.767Z,16.80
2018-07-14T10:34:57.689Z,16.10
2018-07-14T10:35:57.679Z,17.00
2018-07-14T10:36:57.642Z,15.10
2018-07-14T10:37:57.628Z,15.00
2018-07-14T10:38:57.652Z,14.70
2018-07-14T10:39:57.621Z,16.60
2018-07-14T10:40:57.598Z,15.70
2018-07-14T10:41:57.649Z,14.70
2018-07-14T10:42:57.580Z,15.70
2018-07-14T10:43:57.605Z,14.50
2018-07-14T10:44:57.590Z,14.90
2018-07-14T10:45:57.545Z,15.10
2018-07-14T10:46:57.533Z,14.90
2018-07-14T10:47:57.530Z,15.40
2018-07-14T10:48:57.528Z,15.00
2018-07-14T10:49:57.545Z,14.50
2018-07-14T10:50:57.495Z,12.60
2018-07-14T10:51:57.482Z,13.30
2018-07-14T10:52:57.477Z,14.90
2018-07-14T10:53:57.464Z,14.20
2018-07-14T10:54:57.463Z,14.70
2018-07-14T10:55:57.473Z,14.50
2018-07-14T10:56:57.432Z,14.90
2018-07-14T10:57:57.422Z,14.30
2018-07-14T10:58:57.409Z,13.20
2018-07-14T10:59:57.431Z,11.50
2018-07-14T11:00:57.404Z,13.10
2018-07-14T11:01:57.422Z,14.10
2018-07-14T11:02:57.377Z,14.10
2018-07-14T11:03:57.375Z,14.30
2018-07-14T11:04:57.364Z,14.00
2018-07-14T11:05:57.340Z,13.60
2018-07-14T11:06:57.326Z,13.70
2018-07-14T11:07:57.353Z,13.70
2018-07-14T11:08:57.311Z,14.20
2018-07-14T11:09:57.300Z,13.00
2018-07-14T11:10:57.291Z,12.70
2018-07-14T11:11:57.284Z,14.10
2018-07-14T11:12:57.271Z,13.20
2018-07-14T11:13:57.280Z,16.30
2018-07-14T11:14:57.293Z,12.70
2018-07-14T11:15:57.235Z,12.30
2018-07-14T11:16:57.234Z,13.90
2018-07-14T11:17:57.254Z,14.20
2018-07-14T11:18:57.236Z,13.90
2018-07-14T11:19:57.205Z,13.90
2018-07-14T11:20:57.199Z,13.20
2018-07-14T11:21:57.184Z,12.80
2018-07-14T11:22:57.183Z,11.90
2018-07-14T11:23:57.157Z,11.70
2018-07-14T11:24:57.191Z,10.60
2018-07-14T11:25:57.146Z,13.20
2018-07-14T11:26:57.150Z,12.70
2018-07-14T11:27:57.126Z,13.80
2018-07-14T11:28:57.113Z,12.60
2018-07-14T11:29:57.105Z,11.30
2018-07-14T11:30:57.112Z,9.50
2018-07-14T11:31:57.091Z,11.30
2018-07-14T11:32:57.090Z,11.30
2018-07-14T11:33:57.074Z,11.00
2018-07-14T11:34:57.072Z,11.40
2018-07-14T11:35:57.079Z,10.70
2018-07-14T11:36:57.047Z,9.70
2018-07-14T11:37:57.042Z,11.70
2018-07-14T11:38:57.027Z,10.00
2018-07-14T11:39:57.026Z,9.80
2018-07-14T11:40:57.008Z,11.70
2018-07-14T11:41:57.033Z,12.10
2018-07-14T11:42:56.985Z,12.60
2018-07-14T11:43:56.983Z,12.50
2018-07-14T11:44:56.973Z,10.50
2018-07-14T11:45:56.962Z,10.90
2018-07-14T11:46:56.957Z,10.60
2018-07-14T11:47:57.046Z,11.90
2018-07-14T11:48:56.952Z,10.90
2018-07-14T11:49:56.927Z,11.30
2018-07-14T11:50:56.915Z,12.60
2018-07-14T11:51:56.916Z,10.70
2018-07-14T11:52:56.903Z,10.10
2018-07-14T11:53:56.927Z,10.90
2018-07-14T11:54:56.892Z,10.40
2018-07-14T11:55:56.875Z,10.60
2018-07-14T11:56:56.869Z,12.00
2018-07-14T11:57:56.864Z,11.40
2018-07-14T11:58:56.867Z,11.40
2018-07-14T11:59:56.869Z,11.50
2018-07-14T12:00:56.847Z,11.40
2018-07-14T12:01:56.878Z,9.90
2018-07-14T12:02:56.815Z,10.40
2018-07-14T12:03:56.815Z,11.30
2018-07-14T12:04:56.803Z,10.10
2018-07-14T12:05:56.813Z,11.70
2018-07-14T12:06:56.786Z,10.30
2018-07-14T12:07:56.771Z,11.30
2018-07-14T12:08:56.766Z,12.10
2018-07-14T12:09:56.757Z,12.80
2018-07-14T12:10:56.785Z,12.70
2018-07-14T12:11:56.742Z,12.70
2018-07-14T12:12:56.741Z,12.80
2018-07-14T12:13:56.728Z,11.40
2018-07-14T12:14:56.710Z,11.00
2018-07-14T12:15:56.762Z,13.10
2018-07-14T12:16:56.744Z,13.20
2018-07-14T12:17:56.684Z,13.00
2018-07-14T12:18:56.684Z,13.80
2018-07-14T12:19:56.660Z,12.10
2018-07-14T12:20:56.656Z,12.30
2018-07-14T12:21:56.659Z,13.20
2018-07-14T12:22:56.665Z,14.00
2018-07-14T12:23:56.629Z,13.80
2018-07-14T12:24:56.617Z,13.20
2018-07-14T12:25:56.607Z,14.10
2018-07-14T12:26:56.607Z,13.40
2018-07-14T12:27:56.619Z,13.20
2018-07-14T12:28:56.580Z,12.90
2018-07-14T12:29:56.570Z,12.70
2018-07-14T12:30:56.565Z,12.20
2018-07-14T12:31:56.581Z,12.40
2018-07-14T12:32:56.583Z,12.50
2018-07-14T12:33:56.560Z,11.40
2018-07-14T12:34:56.523Z,13.30
2018-07-14T12:35:56.524Z,12.40
2018-07-14T12:36:56.510Z,11.60
2018-07-14T12:37:56.507Z,11.30
2018-07-14T12:38:56.496Z,11.60
2018-07-14T12:39:56.498Z,12.50
2018-07-14T12:40:56.479Z,12.00
2018-07-14T12:41:56.466Z,10.70
2018-07-14T12:42:56.462Z,10.90
2018-07-14T12:43:56.452Z,12.90
2018-07-14T12:44:56.471Z,12.30
2018-07-14T12:45:56.433Z,10.90
2018-07-14T12:46:56.422Z,10.50
2018-07-14T12:47:56.425Z,12.00
2018-07-14T12:48:56.411Z,11.00